YXR weather

Earlton (Timiskaming Regional) Airport
Earlton, Ontario, Canada

Public forecast

Using degrees Celsius for public forecast. Weather courtesy of forecast.io.

Current aviation weather report (METAR) for Earlton (Timiskaming Regional) Airport

Retrieved 2020/06/03 06:29 UTC (1 minute ago):

CYXR 030629Z AUTO 01005KT 9SM OVC008 13/12 A2968 RMK PRESFR SLP057 DENSITY ALT 900FT

Aviation forecast (TAF) for Earlton (Timiskaming Regional) Airport

Forecast is more than 12 hours old.

Retrieved 2020/06/02 18:00 UTC (13 hours ago):

TAF CYXR 021738Z 0218/0224 17008KT P6SM OVC008 TEMPO 0218/0219 SCT008 OVC015 FM021900 18008KT P6SM OVC020 TEMPO 0219/0222 6SM -RA BR OVC008 FM022200 20006KT 6SM -RA BR OVC015 TEMPO 0222/0224 3SM -RA -DZ BR OVC007 PROB30 0222/0224 2SM -DZ -RA BR OVC005 RMK FCST BASED ON AUTO OBS NXT FCST WILL BE ISSUED AT 031145Z